createdAt,value
2023-06-11T00:00:08.041Z,20.50
2023-06-11T00:01:08.013Z,20.48
2023-06-11T00:02:08.115Z,20.44
2023-06-11T00:03:08.109Z,20.44
2023-06-11T00:04:08.130Z,20.46
2023-06-11T00:05:08.158Z,20.48
2023-06-11T00:06:07.965Z,20.46
2023-06-11T00:07:07.948Z,20.48
2023-06-11T00:08:08.041Z,20.48
2023-06-11T00:09:07.933Z,20.48
2023-06-11T00:10:07.956Z,20.46
2023-06-11T00:11:07.906Z,20.46
2023-06-11T00:12:07.910Z,20.46
2023-06-11T00:13:07.894Z,20.44
2023-06-11T00:14:07.875Z,20.42
2023-06-11T00:15:08.115Z,20.42
2023-06-11T00:16:07.904Z,20.42
2023-06-11T00:17:07.840Z,20.39
2023-06-11T00:18:07.938Z,20.37
2023-06-11T00:19:07.826Z,20.39
2023-06-11T00:20:07.824Z,20.41
2023-06-11T00:21:07.823Z,20.41
2023-06-11T00:22:07.796Z,20.42
2023-06-11T00:23:07.805Z,20.39
2023-06-11T00:24:07.828Z,20.39
2023-06-11T00:25:07.964Z,20.36
2023-06-11T00:26:07.767Z,20.33
2023-06-11T00:27:07.735Z,20.30
2023-06-11T00:28:07.729Z,20.32
2023-06-11T00:29:07.719Z,20.30
2023-06-11T00:30:07.768Z,20.29
2023-06-11T00:31:07.785Z,20.27
2023-06-11T00:32:07.783Z,20.26
2023-06-11T00:33:07.714Z,20.23
2023-06-11T00:34:07.675Z,20.25
2023-06-11T00:35:07.928Z,20.23
2023-06-11T00:36:07.661Z,20.22
2023-06-11T00:37:07.653Z,20.18
2023-06-11T00:38:07.626Z,20.19
2023-06-11T00:39:07.624Z,20.17
2023-06-11T00:40:07.621Z,20.15
2023-06-11T00:41:07.741Z,20.14
2023-06-11T00:42:07.598Z,20.14
2023-06-11T00:43:07.605Z,20.12
2023-06-11T00:44:07.591Z,20.14
2023-06-11T00:45:07.760Z,20.12
2023-06-11T00:46:07.721Z,20.14
2023-06-11T00:47:07.556Z,20.12
2023-06-11T00:48:07.577Z,20.12
2023-06-11T00:49:07.547Z,20.08
2023-06-11T00:50:07.496Z,20.09
2023-06-11T00:51:07.490Z,20.09
2023-06-11T00:52:07.483Z,20.05
2023-06-11T00:53:07.474Z,20.04
2023-06-11T00:54:07.469Z,20.04
2023-06-11T00:55:07.657Z,20.02
2023-06-11T00:56:07.422Z,20.00
2023-06-11T00:57:07.462Z,19.99
2023-06-11T00:58:07.416Z,19.94
2023-06-11T00:59:07.417Z,19.92
2023-06-11T01:00:07.391Z,19.87
2023-06-11T01:01:07.413Z,19.81
2023-06-11T01:02:07.377Z,19.78
2023-06-11T01:03:07.439Z,19.74
2023-06-11T01:04:07.465Z,19.70
2023-06-11T01:05:07.476Z,19.63
2023-06-11T01:06:07.314Z,19.60
2023-06-11T01:07:07.321Z,19.59
2023-06-11T01:08:07.306Z,19.54
2023-06-11T01:09:07.310Z,19.53
2023-06-11T01:10:07.317Z,19.50
2023-06-11T01:11:09.602Z,19.45
2023-06-11T01:12:07.264Z,19.42
2023-06-11T01:13:07.259Z,19.37
2023-06-11T01:14:07.278Z,19.35
2023-06-11T01:15:07.450Z,19.32
2023-06-11T01:16:07.235Z,19.27
2023-06-11T01:17:07.284Z,19.24
2023-06-11T01:18:07.308Z,19.23
2023-06-11T01:19:07.188Z,19.22
2023-06-11T01:20:07.271Z,19.20
2023-06-11T01:21:07.186Z,19.20
2023-06-11T01:22:07.195Z,19.22
2023-06-11T01:23:07.168Z,19.19
2023-06-11T01:24:07.164Z,19.17
2023-06-11T01:25:07.208Z,19.16
2023-06-11T01:26:07.128Z,19.13
2023-06-11T01:27:07.116Z,19.09
2023-06-11T01:28:07.243Z,19.07
2023-06-11T01:29:07.108Z,19.05
2023-06-11T01:30:07.068Z,19.07
2023-06-11T01:31:07.125Z,19.07
2023-06-11T01:32:07.177Z,19.04
2023-06-11T01:33:07.118Z,19.05
2023-06-11T01:34:07.295Z,19.04
2023-06-11T01:35:07.318Z,19.07
2023-06-11T01:36:07.199Z,19.08
2023-06-11T01:37:07.028Z,19.09
2023-06-11T01:38:07.256Z,19.09
2023-06-11T01:39:07.032Z,19.12
2023-06-11T01:40:06.959Z,19.13
2023-06-11T01:41:06.959Z,19.15
2023-06-11T01:42:07.003Z,19.17
2023-06-11T01:43:06.972Z,19.19
2023-06-11T01:44:06.924Z,19.23
2023-06-11T01:45:06.967Z,19.26
2023-06-11T01:46:06.933Z,19.27
2023-06-11T01:47:07.007Z,19.30
2023-06-11T01:49:06.957Z,19.32
2023-06-11T01:50:06.860Z,19.32
2023-06-11T01:51:06.891Z,19.31
2023-06-11T01:52:06.846Z,19.30
2023-06-11T01:53:07.111Z,19.31
2023-06-11T01:54:07.132Z,19.27
2023-06-11T01:55:06.856Z,19.24
2023-06-11T01:56:06.787Z,19.22
2023-06-11T01:57:06.877Z,19.17
2023-06-11T01:58:06.819Z,19.13
2023-06-11T01:59:06.840Z,19.08
2023-06-11T02:00:06.846Z,19.05
2023-06-11T02:01:06.795Z,19.00
2023-06-11T02:02:06.844Z,18.98
2023-06-11T02:03:06.983Z,18.94
2023-06-11T02:04:07.176Z,18.96
2023-06-11T02:05:06.734Z,18.91
2023-06-11T02:06:06.718Z,18.89
2023-06-11T02:07:06.680Z,18.89
2023-06-11T02:08:06.684Z,18.85
2023-06-11T02:09:06.714Z,18.85
2023-06-11T02:10:06.734Z,18.83
2023-06-11T02:11:06.626Z,18.82
2023-06-11T02:12:06.617Z,18.81
2023-06-11T02:13:06.636Z,18.81
2023-06-11T02:14:06.609Z,18.78
2023-06-11T02:15:06.617Z,18.75
2023-06-11T02:16:06.646Z,18.74
2023-06-11T02:17:06.577Z,18.71
2023-06-11T02:18:06.601Z,18.71
2023-06-11T02:19:06.553Z,18.67
2023-06-11T02:20:06.531Z,18.63
2023-06-11T02:21:06.557Z,18.61
2023-06-11T02:22:06.502Z,18.56
2023-06-11T02:23:06.536Z,18.54
2023-06-11T02:24:06.565Z,18.51
2023-06-11T02:25:06.503Z,18.51
2023-06-11T02:26:06.486Z,18.48
2023-06-11T02:27:06.495Z,18.48
2023-06-11T02:28:06.456Z,18.49
2023-06-11T02:29:06.455Z,18.51
2023-06-11T02:30:06.445Z,18.52
2023-06-11T02:31:06.376Z,18.52
2023-06-11T02:32:06.377Z,18.52
2023-06-11T02:33:06.449Z,18.52
2023-06-11T02:34:06.390Z,18.56
2023-06-11T02:35:06.408Z,18.57
2023-06-11T02:36:06.395Z,18.60
2023-06-11T02:37:06.362Z,18.63
2023-06-11T02:38:06.339Z,18.67
2023-06-11T02:39:06.338Z,18.70
2023-06-11T02:40:06.363Z,18.75
2023-06-11T02:41:06.274Z,18.76
2023-06-11T02:42:06.257Z,18.76
2023-06-11T02:43:06.312Z,18.78
2023-06-11T02:44:06.256Z,18.81
2023-06-11T02:45:06.217Z,18.82
2023-06-11T02:46:06.270Z,18.86
2023-06-11T02:47:06.203Z,18.86
2023-06-11T02:48:06.347Z,18.89
2023-06-11T02:49:06.191Z,18.91
2023-06-11T02:50:06.250Z,18.91
2023-06-11T02:51:06.170Z,18.93
2023-06-11T02:52:06.141Z,18.94
2023-06-11T02:53:06.129Z,18.94
2023-06-11T02:54:06.127Z,18.96
2023-06-11T02:55:06.128Z,18.94
2023-06-11T02:56:06.100Z,18.94
2023-06-11T02:57:06.100Z,18.96
2023-06-11T02:58:06.686Z,18.96
2023-06-11T02:59:06.110Z,18.97
2023-06-11T03:00:06.094Z,18.96
2023-06-11T03:01:06.129Z,18.97
2023-06-11T03:02:06.090Z,18.97
2023-06-11T03:03:06.314Z,19.00
2023-06-11T03:04:06.496Z,19.04
2023-06-11T03:05:06.052Z,19.04
2023-06-11T03:06:06.002Z,19.01
2023-06-11T03:07:05.987Z,19.01
2023-06-11T03:08:05.959Z,19.00
2023-06-11T03:09:05.966Z,18.98
2023-06-11T03:10:06.080Z,18.97
2023-06-11T03:11:05.935Z,18.97
2023-06-11T03:12:06.100Z,18.96
2023-06-11T03:13:05.933Z,18.96
2023-06-11T03:14:05.947Z,18.93
2023-06-11T03:15:05.912Z,18.93
2023-06-11T03:16:05.899Z,18.91
2023-06-11T03:17:05.887Z,18.91
2023-06-11T03:18:05.913Z,18.89
2023-06-11T03:19:05.871Z,18.88
2023-06-11T03:20:05.857Z,18.88
2023-06-11T03:21:05.851Z,18.89
2023-06-11T03:22:05.808Z,18.88
2023-06-11T03:23:05.799Z,18.88
2023-06-11T03:24:05.814Z,18.86
2023-06-11T03:25:05.814Z,18.83
2023-06-11T03:26:05.770Z,18.86
2023-06-11T03:27:05.795Z,18.82
2023-06-11T03:28:05.767Z,18.82
2023-06-11T03:29:05.795Z,18.85
2023-06-11T03:30:05.882Z,18.85
2023-06-11T03:31:05.766Z,18.83
2023-06-11T03:32:05.744Z,18.82
2023-06-11T03:33:05.741Z,18.83
2023-06-11T03:34:05.712Z,18.81
2023-06-11T03:35:05.672Z,18.79
2023-06-11T03:36:05.673Z,18.81
2023-06-11T03:37:05.734Z,18.79
2023-06-11T03:38:05.668Z,18.76
2023-06-11T03:39:05.630Z,18.75
2023-06-11T03:40:05.683Z,18.74
2023-06-11T03:41:05.626Z,18.70
2023-06-11T03:42:05.596Z,18.68
2023-06-11T03:43:05.612Z,18.67
2023-06-11T03:44:05.571Z,18.64
2023-06-11T03:45:05.589Z,18.63
2023-06-11T03:46:05.546Z,18.63
2023-06-11T03:47:05.588Z,18.61
2023-06-11T03:48:05.696Z,18.58
2023-06-11T03:49:05.540Z,18.57
2023-06-11T03:50:05.535Z,18.56
2023-06-11T03:51:05.501Z,18.52
2023-06-11T03:52:05.501Z,18.51
2023-06-11T03:53:05.473Z,18.49
2023-06-11T03:54:05.561Z,18.46
2023-06-11T03:55:05.459Z,18.46
2023-06-11T03:56:05.504Z,18.46
2023-06-11T03:57:05.455Z,18.45
2023-06-11T03:58:05.423Z,18.43
2023-06-11T03:59:05.413Z,18.43
2023-06-11T04:00:05.401Z,18.43
2023-06-11T04:01:05.411Z,18.45
2023-06-11T04:02:05.445Z,18.43
2023-06-11T04:03:05.452Z,18.45
2023-06-11T04:04:05.472Z,18.45
2023-06-11T04:05:05.407Z,18.43
2023-06-11T04:06:05.356Z,18.43
2023-06-11T04:07:05.348Z,18.46
2023-06-11T04:08:05.296Z,18.45
2023-06-11T04:09:05.308Z,18.46
2023-06-11T04:10:05.305Z,18.49
2023-06-11T04:11:05.415Z,18.49
2023-06-11T04:12:05.304Z,18.52
2023-06-11T04:13:05.270Z,18.56
2023-06-11T04:14:05.237Z,18.56
2023-06-11T04:15:05.259Z,18.60
2023-06-11T04:16:07.052Z,18.61
2023-06-11T04:17:05.273Z,18.63
2023-06-11T04:18:05.254Z,18.64
2023-06-11T04:19:05.191Z,18.66
2023-06-11T04:20:05.173Z,18.67
2023-06-11T04:21:05.196Z,18.70
2023-06-11T04:22:05.154Z,18.71
2023-06-11T04:23:05.148Z,18.75
2023-06-11T04:24:08.287Z,18.79
2023-06-11T04:25:05.131Z,18.83
2023-06-11T04:26:05.135Z,18.86
2023-06-11T04:27:05.132Z,18.91
2023-06-11T04:28:05.071Z,18.94
2023-06-11T04:29:05.081Z,18.97
2023-06-11T04:30:05.089Z,18.98
2023-06-11T04:31:05.137Z,19.01
2023-06-11T04:32:05.147Z,19.04
2023-06-11T04:33:05.127Z,19.05
2023-06-11T04:34:05.098Z,19.05
2023-06-11T04:35:05.015Z,19.07
2023-06-11T04:36:05.005Z,19.08
2023-06-11T04:37:05.019Z,19.08
2023-06-11T04:38:05.017Z,19.09
2023-06-11T04:39:04.981Z,19.13
2023-06-11T04:40:04.951Z,19.13
2023-06-11T04:41:04.954Z,19.17
2023-06-11T04:42:04.961Z,19.20
2023-06-11T04:43:04.959Z,19.24
2023-06-11T04:44:04.920Z,19.27
2023-06-11T04:45:04.923Z,19.31
2023-06-11T04:46:05.018Z,19.32
2023-06-11T04:47:04.925Z,19.37
2023-06-11T04:48:04.973Z,19.41
2023-06-11T04:49:04.950Z,19.44
2023-06-11T04:50:04.854Z,19.47
2023-06-11T04:51:04.840Z,19.52
2023-06-11T04:52:04.869Z,19.52
2023-06-11T04:53:04.821Z,19.54
2023-06-11T04:54:04.891Z,19.59
2023-06-11T04:55:04.791Z,19.62
2023-06-11T04:56:05.229Z,19.68
2023-06-11T04:57:04.789Z,19.71
2023-06-11T04:58:04.778Z,19.75
2023-06-11T04:59:04.798Z,19.78
2023-06-11T05:00:04.746Z,19.82
2023-06-11T05:01:04.773Z,19.86
2023-06-11T05:02:04.785Z,19.90
2023-06-11T05:03:04.822Z,19.94
2023-06-11T05:04:04.716Z,20.00
2023-06-11T05:05:04.741Z,20.04
2023-06-11T05:06:04.710Z,20.08
2023-06-11T05:07:04.693Z,20.12
2023-06-11T05:08:04.709Z,20.15
2023-06-11T05:09:04.663Z,20.22
2023-06-11T05:10:04.754Z,20.25
2023-06-11T05:11:04.629Z,20.26
2023-06-11T05:12:04.632Z,20.30
2023-06-11T05:13:04.633Z,20.36
2023-06-11T05:14:04.654Z,20.39
2023-06-11T05:15:04.596Z,20.44
2023-06-11T05:16:04.669Z,20.48
2023-06-11T05:17:04.597Z,20.53
2023-06-11T05:18:04.618Z,20.55
2023-06-11T05:19:04.547Z,20.60
2023-06-11T05:20:04.562Z,20.64
2023-06-11T05:21:04.533Z,20.70
2023-06-11T05:22:04.555Z,20.74
2023-06-11T05:23:04.569Z,20.80
2023-06-11T05:24:04.538Z,20.86
2023-06-11T05:25:04.525Z,20.90
2023-06-11T05:26:04.490Z,20.97
2023-06-11T05:27:04.458Z,21.04
2023-06-11T05:28:04.497Z,21.07
2023-06-11T05:29:04.508Z,21.11
2023-06-11T05:30:04.474Z,21.14
2023-06-11T05:31:04.423Z,21.16
2023-06-11T05:32:04.477Z,21.20
2023-06-11T05:33:04.408Z,21.19
2023-06-11T05:34:04.445Z,21.23
2023-06-11T05:35:04.378Z,21.22
2023-06-11T05:36:04.375Z,21.26
2023-06-11T05:37:04.389Z,21.29
2023-06-11T05:38:04.376Z,21.35
2023-06-11T05:39:04.363Z,21.35
2023-06-11T05:40:04.335Z,21.40
2023-06-11T05:41:04.330Z,21.41
2023-06-11T05:42:04.425Z,21.45
2023-06-11T05:43:04.295Z,21.53
2023-06-11T05:44:04.320Z,21.53
2023-06-11T05:45:04.309Z,21.59
2023-06-11T05:46:04.293Z,21.63
2023-06-11T05:47:04.325Z,21.66
2023-06-11T05:48:04.272Z,21.74
2023-06-11T05:49:04.261Z,21.75
2023-06-11T05:50:04.255Z,21.81
2023-06-11T05:51:04.186Z,21.82
2023-06-11T05:52:04.193Z,21.88
2023-06-11T05:53:04.241Z,21.93
2023-06-11T05:54:04.176Z,21.96
2023-06-11T05:55:04.194Z,21.98
2023-06-11T05:56:04.181Z,22.03
2023-06-11T05:57:04.146Z,22.12
2023-06-11T05:58:04.160Z,22.13
2023-06-11T05:59:04.125Z,22.15
2023-06-11T06:00:04.120Z,22.21
2023-06-11T06:01:04.088Z,22.23
2023-06-11T06:02:04.193Z,22.27
2023-06-11T06:03:04.196Z,22.30
2023-06-11T06:04:04.402Z,22.30
2023-06-11T06:05:04.143Z,22.31
2023-06-11T06:06:04.077Z,22.37
2023-06-11T06:07:04.053Z,22.41
2023-06-11T06:08:04.062Z,22.44
2023-06-11T06:09:10.023Z,22.48
2023-06-11T06:10:04.010Z,22.49
2023-06-11T06:11:04.001Z,22.55
2023-06-11T06:12:03.977Z,22.58
2023-06-11T06:13:03.980Z,22.62
2023-06-11T06:14:03.987Z,22.66
2023-06-11T06:15:03.953Z,22.74
2023-06-11T06:16:03.945Z,22.80
2023-06-11T06:17:03.941Z,22.88
2023-06-11T06:18:03.973Z,22.89
2023-06-11T06:19:03.911Z,22.95
2023-06-11T06:20:04.073Z,22.99
2023-06-11T06:21:03.909Z,23.04
2023-06-11T06:22:03.879Z,23.06
2023-06-11T06:23:03.861Z,23.10
2023-06-11T06:24:04.026Z,23.15
2023-06-11T06:25:03.916Z,23.11
2023-06-11T06:26:03.890Z,23.15
2023-06-11T06:27:03.829Z,23.22
2023-06-11T06:28:04.091Z,23.29
2023-06-11T06:29:03.895Z,23.34
2023-06-11T06:30:03.874Z,23.41
2023-06-11T06:31:03.897Z,23.45
2023-06-11T06:32:03.864Z,23.44
2023-06-11T06:33:03.952Z,23.42
2023-06-11T06:34:03.753Z,23.41
2023-06-11T06:35:03.784Z,23.46
2023-06-11T06:36:03.728Z,23.49
2023-06-11T06:37:03.776Z,23.55
2023-06-11T06:38:03.794Z,23.55
2023-06-11T06:39:03.754Z,23.56
2023-06-11T06:40:03.718Z,23.64
2023-06-11T06:41:03.755Z,23.60
2023-06-11T06:42:03.698Z,23.63
2023-06-11T06:43:03.653Z,23.70
2023-06-11T06:44:03.656Z,23.79
2023-06-11T06:45:04.040Z,23.82
2023-06-11T06:46:03.654Z,23.88
2023-06-11T06:47:03.627Z,23.91
2023-06-11T06:48:03.700Z,23.96
2023-06-11T06:49:03.622Z,23.89
2023-06-11T06:50:03.579Z,23.89
2023-06-11T06:51:03.610Z,23.88
2023-06-11T06:52:03.564Z,23.85
2023-06-11T06:53:03.560Z,23.85
2023-06-11T06:54:03.547Z,23.86
2023-06-11T06:55:03.521Z,23.91
2023-06-11T06:56:03.522Z,23.92
2023-06-11T06:57:03.544Z,23.96
2023-06-11T06:58:03.589Z,23.98
2023-06-11T06:59:03.478Z,23.96
2023-06-11T07:00:03.586Z,24.00
2023-06-11T07:01:03.510Z,23.97
2023-06-11T07:02:03.537Z,24.04
2023-06-11T07:03:03.573Z,24.03
2023-06-11T07:04:03.446Z,23.98
2023-06-11T07:05:03.454Z,23.97
2023-06-11T07:06:03.454Z,24.06
2023-06-11T07:07:03.397Z,24.10
2023-06-11T07:08:03.401Z,24.19
2023-06-11T07:09:03.375Z,24.21
2023-06-11T07:10:03.410Z,24.26
2023-06-11T07:11:03.391Z,24.26
2023-06-11T07:12:03.381Z,24.28
2023-06-11T07:13:03.382Z,24.28
2023-06-11T07:14:03.333Z,24.34
2023-06-11T07:15:03.321Z,24.33
2023-06-11T07:16:03.411Z,24.41
2023-06-11T07:17:03.281Z,24.52
2023-06-11T07:18:03.362Z,24.58
2023-06-11T07:19:03.292Z,24.62
2023-06-11T07:20:03.367Z,24.66
2023-06-11T07:21:03.282Z,24.66
2023-06-11T07:22:03.317Z,24.79
2023-06-11T07:23:03.222Z,24.85
2023-06-11T07:24:03.284Z,24.93
2023-06-11T07:25:03.214Z,24.93
2023-06-11T07:26:03.183Z,24.94
2023-06-11T07:27:03.247Z,25.00
2023-06-11T07:28:03.219Z,25.03
2023-06-11T07:29:03.165Z,25.00
2023-06-11T07:30:03.193Z,25.04
2023-06-11T07:31:03.257Z,25.15
2023-06-11T07:32:03.141Z,25.21
2023-06-11T07:33:03.183Z,25.30
2023-06-11T07:34:03.244Z,25.34
2023-06-11T07:35:03.143Z,25.41
2023-06-11T07:36:03.098Z,25.51
2023-06-11T07:37:03.076Z,25.55
2023-06-11T07:38:03.149Z,25.67
2023-06-11T07:39:03.070Z,25.74
2023-06-11T07:40:03.059Z,25.77
2023-06-11T07:41:03.045Z,25.83
2023-06-11T07:42:03.025Z,25.90
2023-06-11T07:43:03.040Z,25.92
2023-06-11T07:44:03.027Z,25.93
2023-06-11T07:45:02.989Z,26.00
2023-06-11T07:46:02.984Z,26.07
2023-06-11T07:47:03.024Z,26.11
2023-06-11T07:48:03.057Z,26.21
2023-06-11T07:49:02.981Z,26.24
2023-06-11T07:50:02.928Z,26.38
2023-06-11T07:51:02.931Z,26.39
2023-06-11T07:52:02.927Z,26.42
2023-06-11T07:53:03.015Z,26.48
2023-06-11T07:54:03.125Z,26.45
2023-06-11T07:55:02.892Z,26.46
2023-06-11T07:56:02.904Z,26.42
2023-06-11T07:57:02.874Z,26.48
2023-06-11T07:58:02.868Z,26.53
2023-06-11T07:59:02.871Z,26.52
2023-06-11T08:00:03.129Z,26.64
2023-06-11T08:01:02.824Z,26.76
2023-06-11T08:02:02.837Z,26.73
2023-06-11T08:03:02.890Z,26.83
2023-06-11T08:04:02.797Z,26.90
2023-06-11T08:05:03.121Z,27.00
2023-06-11T08:06:02.843Z,27.03
2023-06-11T08:07:03.281Z,27.10
2023-06-11T08:08:02.807Z,27.23
2023-06-11T08:09:02.737Z,27.23
2023-06-11T08:10:02.759Z,27.20
2023-06-11T08:11:02.745Z,27.19
2023-06-11T08:12:02.718Z,27.13
2023-06-11T08:13:02.704Z,27.15
2023-06-11T08:14:02.801Z,27.22
2023-06-11T08:15:02.697Z,27.25
2023-06-11T08:16:02.687Z,27.27
2023-06-11T08:17:02.814Z,27.31
2023-06-11T08:18:02.700Z,27.40
2023-06-11T08:19:02.669Z,27.50
2023-06-11T08:20:02.642Z,27.60
2023-06-11T08:21:02.782Z,27.63
2023-06-11T08:22:02.734Z,27.61
2023-06-11T08:23:02.587Z,27.58
2023-06-11T08:24:02.863Z,27.57
2023-06-11T08:25:02.600Z,27.64
2023-06-11T08:26:02.558Z,27.44
2023-06-11T08:27:02.638Z,27.53
2023-06-11T08:28:02.580Z,27.64
2023-06-11T08:29:02.534Z,27.60
2023-06-11T08:30:02.521Z,27.78
2023-06-11T08:31:02.528Z,27.90
2023-06-11T08:32:02.556Z,27.97
2023-06-11T08:33:02.515Z,28.10
2023-06-11T08:34:02.587Z,28.16
2023-06-11T08:35:02.500Z,28.19
2023-06-11T08:36:02.499Z,28.30
2023-06-11T08:37:02.461Z,28.40
2023-06-11T08:38:02.487Z,28.52
2023-06-11T08:39:02.515Z,28.56
2023-06-11T08:40:02.481Z,28.47
2023-06-11T08:41:02.400Z,28.43
2023-06-11T08:42:02.411Z,28.30
2023-06-11T08:43:02.399Z,28.06
2023-06-11T08:44:02.393Z,28.05
2023-06-11T08:45:02.352Z,28.15
2023-06-11T08:46:02.595Z,28.13
2023-06-11T08:47:02.380Z,28.32
2023-06-11T08:48:02.638Z,28.40
2023-06-11T08:49:02.315Z,28.43
2023-06-11T08:50:02.330Z,28.52
2023-06-11T08:51:02.303Z,28.46
2023-06-11T08:52:02.318Z,28.47
2023-06-11T08:53:02.293Z,28.46
2023-06-11T08:54:02.267Z,28.66
2023-06-11T08:55:02.265Z,28.79
2023-06-11T08:56:05.045Z,28.89
2023-06-11T08:57:02.226Z,28.98
2023-06-11T08:58:02.240Z,28.93
2023-06-11T08:59:02.265Z,28.93
2023-06-11T09:00:02.210Z,28.98
2023-06-11T09:01:02.223Z,29.04
2023-06-11T09:02:02.525Z,29.10
2023-06-11T09:03:02.196Z,29.02
2023-06-11T09:04:02.228Z,29.09
2023-06-11T09:05:02.185Z,29.03
2023-06-11T09:06:02.164Z,28.87
2023-06-11T09:07:02.157Z,28.89
2023-06-11T09:08:02.139Z,28.91
2023-06-11T09:09:02.155Z,28.83
2023-06-11T09:10:02.103Z,28.91
2023-06-11T09:11:02.084Z,29.10
2023-06-11T09:12:02.090Z,29.12
2023-06-11T09:13:02.150Z,29.29
2023-06-11T09:14:02.071Z,29.19
2023-06-11T09:15:02.082Z,29.34
2023-06-11T09:16:02.079Z,29.54
2023-06-11T09:17:02.047Z,29.50
2023-06-11T09:18:02.056Z,29.50
2023-06-11T09:19:02.063Z,29.31
2023-06-11T09:20:05.480Z,29.17
2023-06-11T09:21:02.121Z,29.12
2023-06-11T09:22:01.970Z,29.12
2023-06-11T09:23:01.966Z,29.15
2023-06-11T09:24:01.977Z,29.13
2023-06-11T09:25:01.968Z,29.29
2023-06-11T09:26:01.957Z,29.50
2023-06-11T09:27:01.933Z,29.63
2023-06-11T09:28:01.931Z,29.65
2023-06-11T09:29:01.909Z,29.89
2023-06-11T09:30:01.954Z,30.07
2023-06-11T09:31:02.210Z,30.11
2023-06-11T09:32:01.950Z,30.21
2023-06-11T09:33:01.923Z,30.18
2023-06-11T09:34:01.847Z,30.24
2023-06-11T09:35:01.961Z,30.32
2023-06-11T09:36:01.863Z,30.32
2023-06-11T09:37:01.856Z,30.36
2023-06-11T09:38:01.833Z,30.45
2023-06-11T09:39:01.834Z,30.37
2023-06-11T09:40:07.839Z,30.39
2023-06-11T09:41:01.811Z,30.36
2023-06-11T09:42:01.790Z,30.36
2023-06-11T09:43:01.791Z,30.48
2023-06-11T09:44:01.793Z,30.70
2023-06-11T09:45:01.839Z,30.82
2023-06-11T09:46:01.801Z,30.83
2023-06-11T09:47:03.623Z,30.65
2023-06-11T09:48:01.755Z,30.60
2023-06-11T09:49:01.703Z,30.60
2023-06-11T09:50:01.866Z,30.80
2023-06-11T09:51:01.681Z,30.60
2023-06-11T09:52:01.693Z,30.70
2023-06-11T09:53:01.692Z,30.77
2023-06-11T09:54:01.658Z,30.88
2023-06-11T09:55:01.657Z,30.97
2023-06-11T09:56:10.997Z,31.12
2023-06-11T09:57:01.621Z,31.15
2023-06-11T09:58:01.630Z,31.22
2023-06-11T09:59:01.631Z,31.23
2023-06-11T10:00:01.572Z,31.20
2023-06-11T10:01:03.066Z,31.22
2023-06-11T10:02:01.578Z,31.26
2023-06-11T10:03:01.698Z,31.22
2023-06-11T10:04:01.665Z,31.01
2023-06-11T10:05:01.561Z,30.85
2023-06-11T10:06:01.530Z,30.82
2023-06-11T10:07:01.523Z,30.75
2023-06-11T10:08:01.552Z,30.83
2023-06-11T10:09:01.511Z,31.04
2023-06-11T10:10:01.569Z,31.14
2023-06-11T10:11:01.488Z,31.08
2023-06-11T10:12:01.490Z,31.22
2023-06-11T10:13:01.468Z,31.38
2023-06-11T10:14:01.519Z,31.60
2023-06-11T10:15:01.457Z,31.54
2023-06-11T10:16:01.526Z,31.44
2023-06-11T10:17:01.436Z,31.46
2023-06-11T10:18:01.452Z,31.63
2023-06-11T10:19:01.401Z,31.57
2023-06-11T10:20:01.402Z,31.60
2023-06-11T10:21:01.381Z,31.56
2023-06-11T10:22:01.362Z,31.56
2023-06-11T10:23:01.404Z,31.48
2023-06-11T10:24:01.382Z,31.48
2023-06-11T10:25:01.352Z,31.64
2023-06-11T10:26:01.322Z,31.67
2023-06-11T10:27:01.386Z,31.74
2023-06-11T10:28:01.300Z,31.48
2023-06-11T10:29:01.549Z,31.37
2023-06-11T10:30:01.272Z,31.38
2023-06-11T10:31:01.297Z,31.48
2023-06-11T10:32:01.340Z,31.64
2023-06-11T10:33:01.384Z,31.84
2023-06-11T10:34:01.416Z,32.01
2023-06-11T10:35:01.303Z,32.05
2023-06-11T10:36:01.215Z,31.95
2023-06-11T10:37:01.317Z,31.74
2023-06-11T10:38:01.200Z,31.74
2023-06-11T10:39:01.190Z,31.84
2023-06-11T10:40:01.255Z,31.76
2023-06-11T10:41:01.198Z,31.81
2023-06-11T10:42:01.568Z,31.76
2023-06-11T10:43:01.151Z,31.75
2023-06-11T10:44:01.141Z,31.90
2023-06-11T10:45:01.250Z,32.13
2023-06-11T10:46:01.451Z,32.09
2023-06-11T10:47:01.185Z,32.11
2023-06-11T10:48:01.186Z,32.28
2023-06-11T10:49:01.082Z,32.31
2023-06-11T10:50:01.066Z,32.45
2023-06-11T10:57:25.609Z,33.04
2023-06-11T10:59:26.351Z,32.73
2023-06-11T11:01:33.104Z,32.57
2023-06-11T11:02:34.074Z,32.90
2023-06-11T11:03:34.184Z,32.60
2023-06-11T11:04:34.148Z,32.69
2023-06-11T11:05:34.078Z,32.92
2023-06-11T11:06:34.502Z,33.12
2023-06-11T11:07:33.993Z,33.03
2023-06-11T11:08:33.986Z,32.58
2023-06-11T11:09:34.045Z,31.94
2023-06-11T11:10:34.580Z,31.52
2023-06-11T11:11:35.150Z,31.27
2023-06-11T11:12:33.989Z,30.74
2023-06-11T11:13:34.050Z,30.37
2023-06-11T11:14:33.936Z,30.59
2023-06-11T11:15:33.961Z,30.78
2023-06-11T11:16:35.598Z,31.15
2023-06-11T11:17:33.906Z,31.66
2023-06-11T11:18:33.881Z,32.14
2023-06-11T11:19:33.866Z,32.46
2023-06-11T11:20:33.847Z,32.36
2023-06-11T11:21:33.920Z,32.45
2023-06-11T11:22:33.858Z,32.72
2023-06-11T11:23:34.000Z,32.99
2023-06-11T11:24:33.943Z,33.24
2023-06-11T11:25:33.812Z,33.42
2023-06-11T11:26:33.813Z,33.30
2023-06-11T11:27:34.580Z,33.36
2023-06-11T11:28:35.359Z,33.41
2023-06-11T11:29:33.852Z,33.64
2023-06-11T11:30:33.817Z,33.57
2023-06-11T11:31:34.030Z,33.57
2023-06-11T11:32:34.697Z,33.04
2023-06-11T11:33:33.781Z,32.88
2023-06-11T11:34:33.718Z,32.72
2023-06-11T11:35:35.104Z,32.72
2023-06-11T11:36:33.702Z,32.58
2023-06-11T11:37:33.753Z,32.70
2023-06-11T11:38:33.696Z,32.80
2023-06-11T11:39:33.726Z,33.09
2023-06-11T11:40:33.709Z,33.49
2023-06-11T11:41:33.633Z,33.64
2023-06-11T11:42:33.735Z,33.95
2023-06-11T11:43:33.635Z,34.01
2023-06-11T11:44:33.617Z,33.86
2023-06-11T11:45:33.673Z,34.00
2023-06-11T11:46:33.660Z,34.18
2023-06-11T11:47:36.418Z,34.34
2023-06-11T11:48:33.621Z,34.45
2023-06-11T11:49:33.581Z,34.83
2023-06-11T11:50:33.552Z,34.82
2023-06-11T11:51:33.562Z,34.59
2023-06-11T11:52:33.549Z,34.53
2023-06-11T11:53:33.576Z,34.60
2023-06-11T11:54:33.550Z,34.67
2023-06-11T11:55:34.524Z,34.95
2023-06-11T11:56:33.583Z,35.29
2023-06-11T11:57:33.452Z,35.26
2023-06-11T11:58:35.409Z,35.26
2023-06-11T11:59:33.588Z,35.34
2023-06-11T12:00:34.382Z,35.61
2023-06-11T12:01:33.526Z,35.77
2023-06-11T12:02:33.477Z,35.87
2023-06-11T12:03:33.874Z,36.02
2023-06-11T12:04:33.428Z,36.19
2023-06-11T12:05:33.520Z,36.35
2023-06-11T12:06:33.521Z,36.61
2023-06-11T12:07:33.393Z,36.25
2023-06-11T12:08:33.367Z,36.33
2023-06-11T12:09:33.368Z,36.23
2023-06-11T12:10:33.380Z,36.09
2023-06-11T12:11:33.380Z,35.84
2023-06-11T12:12:33.572Z,35.47
2023-06-11T12:13:33.357Z,35.31
2023-06-11T12:14:33.482Z,35.31
2023-06-11T12:15:33.327Z,35.47
2023-06-11T12:16:33.348Z,35.65
2023-06-11T12:17:33.301Z,35.92
2023-06-11T12:18:33.262Z,36.07
2023-06-11T12:19:33.235Z,36.04
2023-06-11T12:20:33.269Z,36.22
2023-06-11T12:21:33.232Z,36.22
2023-06-11T12:22:33.232Z,36.04
2023-06-11T12:23:33.200Z,36.32
2023-06-11T12:24:33.420Z,36.59
2023-06-11T12:25:33.305Z,36.86
2023-06-11T12:26:33.194Z,37.01
2023-06-11T12:27:33.180Z,37.05
2023-06-11T12:28:33.175Z,37.19
2023-06-11T12:29:33.175Z,37.44
2023-06-11T12:30:33.199Z,37.61
2023-06-11T12:31:33.258Z,37.39
2023-06-11T12:32:33.225Z,37.47
2023-06-11T12:33:33.109Z,37.73
2023-06-11T12:34:33.174Z,38.07
2023-06-11T12:35:33.123Z,38.55
2023-06-11T12:36:33.094Z,38.59
2023-06-11T12:37:33.088Z,38.18
2023-06-11T12:38:33.124Z,37.60
2023-06-11T12:39:33.118Z,37.65
2023-06-11T12:40:33.071Z,37.58
2023-06-11T12:41:33.066Z,37.41
2023-06-11T12:42:33.042Z,36.91
2023-06-11T12:43:33.029Z,37.05
2023-06-11T12:44:33.125Z,37.27
2023-06-11T12:45:33.007Z,37.19
2023-06-11T12:46:33.044Z,37.15
2023-06-11T12:47:32.971Z,36.94
2023-06-11T12:48:32.985Z,36.89
2023-06-11T12:49:32.933Z,36.83
2023-06-11T12:50:32.941Z,37.10
2023-06-11T12:51:32.931Z,37.25
2023-06-11T12:52:32.912Z,37.39
2023-06-11T12:53:32.903Z,37.32
2023-06-11T12:54:32.910Z,37.51
2023-06-11T12:55:32.887Z,37.62
2023-06-11T12:56:32.896Z,37.51
2023-06-11T12:57:32.885Z,37.44
2023-06-11T12:58:33.205Z,37.35
2023-06-11T12:59:32.924Z,37.47
2023-06-11T13:00:32.895Z,37.55
2023-06-11T13:01:32.861Z,37.30